Mount Stewart, Canada
Current Conditions -  °F | °C
As of 12:00 PM on Saturday 20 Dec 2014 (Local Time) from CYYG Reporting Station
Overcast Overcast  
Wind Chill: 23°   Ceiling: 2800
Heat Index: 32°   Visibility: 12mi
Dew Point: 25°   Wind: 13mph
Humidity: 75%   Direction: 20°NNE
Pressure: 30.25"   Gusts: NA
Location:  46.36°N, 62.86°W
Report Text: CYYG 201600Z 02011KT 12SM FEW015 OVC028 M00/M04 A3025 RMK SC1SC7 SLP245
Loading
Personal Weather Stations






























Interactive Weather Map New forecast layout! Learn more

10-Day Weather Forecast

Advertisements
Track Severe Weather on mobile